sensor_id;sensor_type;location;lat;lon;timestamp;pressure;altitude;pressure_sealevel;temperature;humidity
2397;BME280;1209;48.410;9.054;2022-09-24T00:01:31;95984.31;;;11.58;100.00
2397;BME280;1209;48.410;9.054;2022-09-24T00:03:59;95983.56;;;11.64;100.00
2397;BME280;1209;48.410;9.054;2022-09-24T00:06:26;95985.56;;;11.62;100.00
2397;BME280;1209;48.410;9.054;2022-09-24T00:08:53;95989.19;;;11.40;100.00
2397;BME280;1209;48.410;9.054;2022-09-24T00:11:20;95980.69;;;11.59;100.00
2397;BME280;1209;48.410;9.054;2022-09-24T00:13:50;95979.19;;;11.72;100.00
2397;BME280;1209;48.410;9.054;2022-09-24T00:16:17;95981.34;;;11.83;100.00
2397;BME280;1209;48.410;9.054;2022-09-24T00:18:43;95981.50;;;11.81;100.00
2397;BME280;1209;48.410;9.054;2022-09-24T00:21:16;95973.66;;;11.81;100.00
2397;BME280;1209;48.410;9.054;2022-09-24T00:23:41;95975.66;;;11.79;100.00
2397;BME280;1209;48.410;9.054;2022-09-24T00:26:09;95975.38;;;11.74;100.00
2397;BME280;1209;48.410;9.054;2022-09-24T00:28:53;95968.28;;;11.83;100.00
2397;BME280;1209;48.410;9.054;2022-09-24T00:31:19;95958.25;;;11.72;100.00
2397;BME280;1209;48.410;9.054;2022-09-24T00:33:44;95958.88;;;11.74;100.00
2397;BME280;1209;48.410;9.054;2022-09-24T00:36:09;95960.50;;;11.75;100.00
2397;BME280;1209;48.410;9.054;2022-09-24T00:38:35;95951.84;;;11.74;100.00
2397;BME280;1209;48.410;9.054;2022-09-24T00:41:01;95952.22;;;11.71;100.00
2397;BME280;1209;48.410;9.054;2022-09-24T00:43:36;95949.19;;;11.67;100.00
2397;BME280;1209;48.410;9.054;2022-09-24T00:48:44;95946.19;;;11.71;100.00
2397;BME280;1209;48.410;9.054;2022-09-24T00:51:13;95949.19;;;11.67;100.00
2397;BME280;1209;48.410;9.054;2022-09-24T00:53:40;95947.13;;;11.63;100.00
2397;BME280;1209;48.410;9.054;2022-09-24T00:56:09;95948.31;;;11.60;100.00
2397;BME280;1209;48.410;9.054;2022-09-24T00:58:42;95940.66;;;11.59;100.00
2397;BME280;1209;48.410;9.054;2022-09-24T01:01:08;95924.16;;;11.58;100.00
2397;BME280;1209;48.410;9.054;2022-09-24T01:03:36;95916.88;;;11.54;100.00
2397;BME280;1209;48.410;9.054;2022-09-24T01:06:06;95912.88;;;11.58;100.00
2397;BME280;1209;48.410;9.054;2022-09-24T01:08:32;95920.59;;;11.66;100.00
2397;BME280;1209;48.410;9.054;2022-09-24T01:11:12;95920.78;;;11.64;100.00
2397;BME280;1209;48.410;9.054;2022-09-24T01:22:16;95906.00;;;11.50;100.00
2397;BME280;1209;48.410;9.054;2022-09-24T01:24:57;95903.38;;;11.50;100.00
2397;BME280;1209;48.410;9.054;2022-09-24T01:30:20;95891.91;;;11.51;100.00
2397;BME280;1209;48.410;9.054;2022-09-24T01:33:01;95898.00;;;11.58;100.00
2397;BME280;1209;48.410;9.054;2022-09-24T01:35:36;95894.91;;;11.48;100.00
2397;BME280;1209;48.410;9.054;2022-09-24T01:38:06;95892.50;;;11.47;100.00
2397;BME280;1209;48.410;9.054;2022-09-24T01:40:35;95888.63;;;11.43;100.00
2397;BME280;1209;48.410;9.054;2022-09-24T01:43:03;95887.44;;;11.45;100.00
2397;BME280;1209;48.410;9.054;2022-09-24T01:45:30;95888.94;;;11.54;100.00
2397;BME280;1209;48.410;9.054;2022-09-24T01:48:00;95891.13;;;11.51;100.00
2397;BME280;1209;48.410;9.054;2022-09-24T01:50:28;95894.34;;;11.53;100.00
2397;BME280;1209;48.410;9.054;2022-09-24T01:53:43;95896.59;;;11.56;100.00
2397;BME280;1209;48.410;9.054;2022-09-24T01:55:46;95889.88;;;11.47;100.00
2397;BME280;1209;48.410;9.054;2022-09-24T01:58:20;95886.66;;;11.45;100.00
2397;BME280;1209;48.410;9.054;2022-09-24T02:00:48;95887.06;;;11.48;100.00
2397;BME280;1209;48.410;9.054;2022-09-24T02:03:25;95880.84;;;11.49;100.00
2397;BME280;1209;48.410;9.054;2022-09-24T02:06:00;95881.28;;;11.53;100.00
2397;BME280;1209;48.410;9.054;2022-09-24T02:08:42;95874.63;;;11.50;100.00
2397;BME280;1209;48.410;9.054;2022-09-24T02:11:13;95889.69;;;11.48;100.00
2397;BME280;1209;48.410;9.054;2022-09-24T02:16:12;95894.34;;;11.53;100.00
2397;BME280;1209;48.410;9.054;2022-09-24T02:18:41;95888.13;;;11.54;100.00
2397;BME280;1209;48.410;9.054;2022-09-24T02:21:10;95877.09;;;11.58;100.00
2397;BME280;1209;48.410;9.054;2022-09-24T02:23:40;95871.91;;;11.65;100.00
2397;BME280;1209;48.410;9.054;2022-09-24T02:26:08;95867.72;;;11.71;100.00
2397;BME280;1209;48.410;9.054;2022-09-24T02:28:33;95866.13;;;11.76;100.00
2397;BME280;1209;48.410;9.054;2022-09-24T02:31:29;95862.91;;;11.74;100.00
2397;BME280;1209;48.410;9.054;2022-09-24T02:33:58;95864.53;;;11.75;100.00
2397;BME280;1209;48.410;9.054;2022-09-24T02:36:57;95873.97;;;11.76;100.00
2397;BME280;1209;48.410;9.054;2022-09-24T02:39:26;95865.31;;;11.76;100.00
2397;BME280;1209;48.410;9.054;2022-09-24T02:41:52;95879.06;;;11.78;100.00
2397;BME280;1209;48.410;9.054;2022-09-24T02:44:18;95881.66;;;11.78;100.00
2397;BME280;1209;48.410;9.054;2022-09-24T02:46:45;95878.06;;;11.79;100.00
2397;BME280;1209;48.410;9.054;2022-09-24T02:49:12;95872.97;;;11.77;100.00
2397;BME280;1209;48.410;9.054;2022-09-24T02:51:38;95872.94;;;11.71;100.00
2397;BME280;1209;48.410;9.054;2022-09-24T02:54:03;95865.72;;;11.73;100.00
2397;BME280;1209;48.410;9.054;2022-09-24T02:56:29;95863.91;;;11.73;100.00
2397;BME280;1209;48.410;9.054;2022-09-24T02:58:54;95857.06;;;11.72;100.00
2397;BME280;1209;48.410;9.054;2022-09-24T03:01:20;95859.06;;;11.70;100.00
2397;BME280;1209;48.410;9.054;2022-09-24T03:03:46;95848.59;;;11.70;100.00
2397;BME280;1209;48.410;9.054;2022-09-24T03:06:12;95850.63;;;11.75;100.00
2397;BME280;1209;48.410;9.054;2022-09-24T03:08:38;95838.56;;;11.74;100.00
2397;BME280;1209;48.410;9.054;2022-09-24T03:11:03;95842.44;;;11.78;100.00
2397;BME280;1209;48.410;9.054;2022-09-24T03:13:29;95840.97;;;11.75;100.00
2397;BME280;1209;48.410;9.054;2022-09-24T03:15:54;95838.16;;;11.77;100.00
2397;BME280;1209;48.410;9.054;2022-09-24T03:18:19;95839.97;;;11.76;100.00
2397;BME280;1209;48.410;9.054;2022-09-24T03:21:00;95837.81;;;11.80;100.00
2397;BME280;1209;48.410;9.054;2022-09-24T03:23:25;95839.97;;;11.76;100.00
2397;BME280;1209;48.410;9.054;2022-09-24T03:25:51;95839.81;;;11.78;100.00
2397;BME280;1209;48.410;9.054;2022-09-24T03:28:16;95843.59;;;11.75;100.00
2397;BME280;1209;48.410;9.054;2022-09-24T03:30:43;95843.59;;;11.75;100.00
2397;BME280;1209;48.410;9.054;2022-09-24T03:33:41;95836.84;;;11.59;100.00
2397;BME280;1209;48.410;9.054;2022-09-24T03:36:10;95834.81;;;11.55;100.00
2397;BME280;1209;48.410;9.054;2022-09-24T03:38:37;95833.28;;;11.67;100.00
2397;BME280;1209;48.410;9.054;2022-09-24T03:41:04;95831.28;;;11.69;100.00
2397;BME280;1209;48.410;9.054;2022-09-24T03:43:29;95833.28;;;11.67;100.00
2397;BME280;1209;48.410;9.054;2022-09-24T03:45:56;95833.69;;;11.71;100.00
2397;BME280;1209;48.410;9.054;2022-09-24T03:48:22;95835.66;;;11.83;100.00
2397;BME280;1209;48.410;9.054;2022-09-24T03:50:48;95840.97;;;11.75;100.00
2397;BME280;1209;48.410;9.054;2022-09-24T03:53:14;95846.22;;;11.75;100.00
2397;BME280;1209;48.410;9.054;2022-09-24T03:56:01;95835.38;;;11.78;100.00
2397;BME280;1209;48.410;9.054;2022-09-24T03:58:27;95832.09;;;11.70;100.00
2397;BME280;1209;48.410;9.054;2022-09-24T04:00:54;95839.09;;;11.62;100.00
2397;BME280;1209;48.410;9.054;2022-09-24T04:03:20;95840.66;;;11.57;100.00
2397;BME280;1209;48.410;9.054;2022-09-24T04:05:46;95839.28;;;11.61;100.00
2397;BME280;1209;48.410;9.054;2022-09-24T04:08:12;95839.84;;;11.56;100.00
2397;BME280;1209;48.410;9.054;2022-09-24T04:10:37;95832.44;;;11.60;100.00
2397;BME280;1209;48.410;9.054;2022-09-24T04:13:02;95833.84;;;11.62;100.00
2397;BME280;1209;48.410;9.054;2022-09-24T04:15:28;95826.44;;;11.66;100.00
2397;BME280;1209;48.410;9.054;2022-09-24T04:17:57;95833.09;;;11.68;100.00
2397;BME280;1209;48.410;9.054;2022-09-24T04:20:25;95830.50;;;11.75;100.00
2397;BME280;1209;48.410;9.054;2022-09-24T04:22:53;95826.09;;;11.76;100.00
2397;BME280;1209;48.410;9.054;2022-09-24T04:25:21;95825.06;;;11.70;100.00
2397;BME280;1209;48.410;9.054;2022-09-24T04:27:52;95827.44;;;11.65;100.00
2397;BME280;1209;48.410;9.054;2022-09-24T04:30:17;95819.00;;;11.70;100.00
2397;BME280;1209;48.410;9.054;2022-09-24T04:32:43;95820.66;;;11.77;100.00
2397;BME280;1209;48.410;9.054;2022-09-24T04:35:09;95823.03;;;11.72;100.00
2397;BME280;1209;48.410;9.054;2022-09-24T04:37:35;95817.75;;;11.59;100.00
2397;BME280;1209;48.410;9.054;2022-09-24T04:40:04;95814.31;;;11.58;100.00
2397;BME280;1209;48.410;9.054;2022-09-24T04:42:29;95808.09;;;11.59;100.00
2397;BME280;1209;48.410;9.054;2022-09-24T04:44:55;95809.13;;;11.65;100.00
2397;BME280;1209;48.410;9.054;2022-09-24T04:47:20;95815.97;;;11.66;100.00
2397;BME280;1209;48.410;9.054;2022-09-24T04:49:48;95814.59;;;11.70;100.00
2397;BME280;1209;48.410;9.054;2022-09-24T04:52:14;95825.84;;;11.71;100.00
2397;BME280;1209;48.410;9.054;2022-09-24T04:54:40;95821.03;;;11.74;100.00
2397;BME280;1209;48.410;9.054;2022-09-24T04:57:13;95830.69;;;11.74;100.00
2397;BME280;1209;48.410;9.054;2022-09-24T04:59:39;95828.09;;;11.74;100.00
2397;BME280;1209;48.410;9.054;2022-09-24T05:02:04;95832.56;;;11.80;100.00
2397;BME280;1209;48.410;9.054;2022-09-24T05:04:31;95821.25;;;11.73;100.00
2397;BME280;1209;48.410;9.054;2022-09-24T05:06:57;95827.91;;;11.75;100.00
2397;BME280;1209;48.410;9.054;2022-09-24T05:09:22;95826.16;;;11.82;100.00
2397;BME280;1209;48.410;9.054;2022-09-24T05:11:47;95827.97;;;11.82;100.00
2397;BME280;1209;48.410;9.054;2022-09-24T05:14:12;95822.00;;;11.66;100.00
2397;BME280;1209;48.410;9.054;2022-09-24T05:16:38;95831.78;;;11.79;100.00
2397;BME280;1209;48.410;9.054;2022-09-24T05:19:04;95833.50;;;11.72;100.00
2397;BME280;1209;48.410;9.054;2022-09-24T05:21:30;95830.16;;;11.78;100.00
2397;BME280;1209;48.410;9.054;2022-09-24T05:23:55;95833.94;;;11.76;100.00
2397;BME280;1209;48.410;9.054;2022-09-24T05:26:21;95833.03;;;11.83;100.00
2397;BME280;1209;48.410;9.054;2022-09-24T05:29:05;95842.84;;;11.81;100.00
2397;BME280;1209;48.410;9.054;2022-09-24T05:31:30;95842.31;;;11.86;100.00
2397;BME280;1209;48.410;9.054;2022-09-24T05:33:55;95839.28;;;11.89;100.00
2397;BME280;1209;48.410;9.054;2022-09-24T05:36:21;95844.53;;;11.89;100.00
2397;BME280;1209;48.410;9.054;2022-09-24T05:38:47;95854.38;;;11.87;100.00
2397;BME280;1209;48.410;9.054;2022-09-24T05:41:12;95854.81;;;11.90;100.00
2397;BME280;1209;48.410;9.054;2022-09-24T05:43:37;95845.16;;;11.91;100.00
2397;BME280;1209;48.410;9.054;2022-09-24T05:46:02;95852.81;;;11.92;100.00
2397;BME280;1209;48.410;9.054;2022-09-24T05:48:28;95857.84;;;11.94;100.00
2397;BME280;1209;48.410;9.054;2022-09-24T05:50:53;95858.66;;;11.94;100.00
2397;BME280;1209;48.410;9.054;2022-09-24T05:53:20;95855.03;;;11.95;100.00
2397;BME280;1209;48.410;9.054;2022-09-24T05:55:46;95856.88;;;12.02;100.00
2397;BME280;1209;48.410;9.054;2022-09-24T05:58:12;95847.78;;;11.97;100.00
2397;BME280;1209;48.410;9.054;2022-09-24T06:00:37;95853.63;;;12.00;100.00
2397;BME280;1209;48.410;9.054;2022-09-24T06:03:10;95850.25;;;12.06;100.00
2397;BME280;1209;48.410;9.054;2022-09-24T06:05:35;95852.06;;;12.05;100.00
2397;BME280;1209;48.410;9.054;2022-09-24T06:08:04;95843.81;;;12.08;100.00
2397;BME280;1209;48.410;9.054;2022-09-24T06:10:31;95851.69;;;12.15;100.00
2397;BME280;1209;48.410;9.054;2022-09-24T06:12:56;95846.47;;;12.15;100.00
2397;BME280;1209;48.410;9.054;2022-09-24T06:15:22;95849.72;;;12.23;100.00
2397;BME280;1209;48.410;9.054;2022-09-24T06:17:52;95848.72;;;12.24;100.00
2397;BME280;1209;48.410;9.054;2022-09-24T06:20:18;95854.38;;;12.28;100.00
2397;BME280;1209;48.410;9.054;2022-09-24T06:22:43;95855.63;;;12.32;100.00
2397;BME280;1209;48.410;9.054;2022-09-24T06:25:08;95860.28;;;12.37;100.00
2397;BME280;1209;48.410;9.054;2022-09-24T06:27:34;95860.06;;;12.38;100.00
2397;BME280;1209;48.410;9.054;2022-09-24T06:29:59;95861.72;;;12.46;100.00
2397;BME280;1209;48.410;9.054;2022-09-24T06:32:24;95861.13;;;12.57;100.00
2397;BME280;1209;48.410;9.054;2022-09-24T06:34:50;95866.38;;;12.57;100.00
2397;BME280;1209;48.410;9.054;2022-09-24T06:37:15;95868.38;;;12.55;100.00
2397;BME280;1209;48.410;9.054;2022-09-24T06:39:40;95861.34;;;12.55;100.00
2397;BME280;1209;48.410;9.054;2022-09-24T06:42:06;95868.59;;;12.60;100.00
2397;BME280;1209;48.410;9.054;2022-09-24T06:44:31;95871.03;;;12.61;100.00
2397;BME280;1209;48.410;9.054;2022-09-24T06:46:58;95879.50;;;12.64;100.00
2397;BME280;1209;48.410;9.054;2022-09-24T06:49:24;95876.47;;;12.67;100.00
2397;BME280;1209;48.410;9.054;2022-09-24T06:51:52;95873.69;;;12.75;100.00
2397;BME280;1209;48.410;9.054;2022-09-24T06:54:18;95875.13;;;12.77;100.00
2397;BME280;1209;48.410;9.054;2022-09-24T06:56:43;95876.91;;;12.70;100.00
2397;BME280;1209;48.410;9.054;2022-09-24T06:59:09;95874.13;;;12.85;100.00
2397;BME280;1209;48.410;9.054;2022-09-24T07:01:34;95867.69;;;12.81;100.00
2397;BME280;1209;48.410;9.054;2022-09-24T07:03:59;95875.13;;;12.77;100.00
2397;BME280;1209;48.410;9.054;2022-09-24T07:06:25;95877.16;;;12.88;100.00
2397;BME280;1209;48.410;9.054;2022-09-24T07:08:50;95867.50;;;12.96;100.00
2397;BME280;1209;48.410;9.054;2022-09-24T07:11:15;95868.13;;;13.04;100.00
2397;BME280;1209;48.410;9.054;2022-09-24T07:13:41;95867.31;;;13.10;100.00
2397;BME280;1209;48.410;9.054;2022-09-24T07:16:06;95873.00;;;13.20;100.00
2397;BME280;1209;48.410;9.054;2022-09-24T07:18:31;95876.22;;;13.22;100.00
2397;BME280;1209;48.410;9.054;2022-09-24T07:20:57;95879.03;;;13.21;100.00
2397;BME280;1209;48.410;9.054;2022-09-24T07:23:22;95879.47;;;13.25;100.00
2397;BME280;1209;48.410;9.054;2022-09-24T07:25:48;95884.09;;;13.22;100.00
2397;BME280;1209;48.410;9.054;2022-09-24T07:28:15;95893.56;;;13.23;100.00
2397;BME280;1209;48.410;9.054;2022-09-24T07:30:41;95888.97;;;13.26;100.00
2397;BME280;1209;48.410;9.054;2022-09-24T07:33:07;95885.53;;;13.25;100.00
2397;BME280;1209;48.410;9.054;2022-09-24T07:35:33;95896.63;;;13.27;100.00
2397;BME280;1209;48.410;9.054;2022-09-24T07:38:03;95894.41;;;13.31;100.00
2397;BME280;1209;48.410;9.054;2022-09-24T07:40:29;95898.84;;;13.37;100.00
2397;BME280;1209;48.410;9.054;2022-09-24T07:42:55;95901.88;;;13.34;100.00
2397;BME280;1209;48.410;9.054;2022-09-24T07:45:22;95906.94;;;13.35;100.00
2397;BME280;1209;48.410;9.054;2022-09-24T07:48:04;95904.09;;;13.37;100.00
2397;BME280;1209;48.410;9.054;2022-09-24T07:50:32;95897.66;;;13.39;100.00
2397;BME280;1209;48.410;9.054;2022-09-24T07:52:58;95903.28;;;13.43;100.00
2397;BME280;1209;48.410;9.054;2022-09-24T07:55:25;95908.53;;;13.43;100.00
2397;BME280;1209;48.410;9.054;2022-09-24T07:57:52;95907.13;;;13.53;100.00
2397;BME280;1209;48.410;9.054;2022-09-24T08:00:19;95898.06;;;13.49;100.00
2397;BME280;1209;48.410;9.054;2022-09-24T08:02:46;95903.50;;;13.48;100.00
2397;BME280;1209;48.410;9.054;2022-09-24T08:05:12;95907.53;;;13.50;100.00
2397;BME280;1209;48.410;9.054;2022-09-24T08:07:39;95912.78;;;13.57;100.00
2397;BME280;1209;48.410;9.054;2022-09-24T08:10:04;95907.53;;;13.57;100.00
2397;BME280;1209;48.410;9.054;2022-09-24T08:12:30;95911.75;;;13.65;100.00
2397;BME280;1209;48.410;9.054;2022-09-24T08:14:55;95911.16;;;13.63;100.00
2397;BME280;1209;48.410;9.054;2022-09-24T08:17:21;95912.56;;;13.65;100.00
2397;BME280;1209;48.410;9.054;2022-09-24T08:19:46;95917.41;;;13.62;100.00
2397;BME280;1209;48.410;9.054;2022-09-24T08:22:12;95917.22;;;13.57;100.00
2397;BME280;1209;48.410;9.054;2022-09-24T08:24:40;95919.44;;;13.53;100.00
2397;BME280;1209;48.410;9.054;2022-09-24T08:27:06;95914.59;;;13.50;100.00
2397;BME280;1209;48.410;9.054;2022-09-24T08:29:31;95915.19;;;13.52;100.00
2397;BME280;1209;48.410;9.054;2022-09-24T08:31:57;95919.22;;;13.48;100.00
2397;BME280;1209;48.410;9.054;2022-09-24T08:34:22;95918.63;;;13.46;100.00
2397;BME280;1209;48.410;9.054;2022-09-24T08:36:48;95921.06;;;13.54;100.00
2397;BME280;1209;48.410;9.054;2022-09-24T08:39:14;95913.19;;;13.54;100.00
2397;BME280;1209;48.410;9.054;2022-09-24T08:41:53;95907.34;;;13.52;100.00
2397;BME280;1209;48.410;9.054;2022-09-24T08:44:26;95912.16;;;13.55;100.00
2397;BME280;1209;48.410;9.054;2022-09-24T08:53:15;95910.34;;;13.62;100.00
2397;BME280;1209;48.410;9.054;2022-09-24T08:55:48;95918.44;;;13.67;100.00
2397;BME280;1209;48.410;9.054;2022-09-24T08:58:26;95911.75;;;13.71;100.00
2397;BME280;1209;48.410;9.054;2022-09-24T09:03:46;95917.25;;;13.76;100.00
2397;BME280;1209;48.410;9.054;2022-09-24T09:11:39;95911.97;;;13.90;100.00
2397;BME280;1209;48.410;9.054;2022-09-24T09:14:10;95912.75;;;13.97;100.00
2397;BME280;1209;48.410;9.054;2022-09-24T09:16:52;95914.19;;;13.99;100.00
2397;BME280;1209;48.410;9.054;2022-09-24T09:19:24;95919.81;;;14.03;100.00
2397;BME280;1209;48.410;9.054;2022-09-24T09:22:02;95920.63;;;14.03;100.00
2397;BME280;1209;48.410;9.054;2022-09-24T09:24:42;95916.59;;;14.07;100.00
2397;BME280;1209;48.410;9.054;2022-09-24T09:27:12;95921.63;;;14.09;100.00
2397;BME280;1209;48.410;9.054;2022-09-24T09:29:47;95920.00;;;14.14;100.00
2397;BME280;1209;48.410;9.054;2022-09-24T09:37:54;95905.44;;;14.18;100.00
2397;BME280;1209;48.410;9.054;2022-09-24T09:40:38;95911.50;;;14.26;100.00
2397;BME280;1209;48.410;9.054;2022-09-24T09:43:10;95906.88;;;14.28;100.00
2397;BME280;1209;48.410;9.054;2022-09-24T09:48:12;95916.97;;;14.31;100.00
2397;BME280;1209;48.410;9.054;2022-09-24T09:50:44;95913.50;;;14.37;100.00
2397;BME280;1209;48.410;9.054;2022-09-24T09:53:22;95909.03;;;14.51;100.00
2397;BME280;1209;48.410;9.054;2022-09-24T09:56:07;95916.47;;;14.67;100.00
2397;BME280;1209;48.410;9.054;2022-09-24T09:58:36;95912.13;;;14.86;100.00
2397;BME280;1209;48.410;9.054;2022-09-24T10:01:10;95916.16;;;14.88;100.00
2397;BME280;1209;48.410;9.054;2022-09-24T10:06:10;95903.38;;;14.98;100.00
2397;BME280;1209;48.410;9.054;2022-09-24T10:08:36;95910.56;;;15.16;100.00
2397;BME280;1209;48.410;9.054;2022-09-24T10:11:02;95904.63;;;15.27;100.00
2397;BME280;1209;48.410;9.054;2022-09-24T10:13:28;95908.00;;;15.34;100.00
2397;BME280;1209;48.410;9.054;2022-09-24T10:15:57;95904.91;;;15.44;100.00
2397;BME280;1209;48.410;9.054;2022-09-24T10:21:23;95903.63;;;15.53;100.00
2397;BME280;1209;48.410;9.054;2022-09-24T10:23:50;95909.75;;;15.47;100.00
2397;BME280;1209;48.410;9.054;2022-09-24T10:26:16;95909.97;;;15.77;100.00
2397;BME280;1209;48.410;9.054;2022-09-24T10:28:47;95903.56;;;15.66;100.00
2397;BME280;1209;48.410;9.054;2022-09-24T10:31:34;95914.50;;;15.88;100.00
2397;BME280;1209;48.410;9.054;2022-09-24T10:34:01;95915.47;;;15.94;100.00
2397;BME280;1209;48.410;9.054;2022-09-24T10:36:30;95904.66;;;16.02;100.00
2397;BME280;1209;48.410;9.054;2022-09-24T10:39:13;95908.09;;;16.02;100.00
2397;BME280;1209;48.410;9.054;2022-09-24T10:41:46;95906.59;;;16.13;100.00
2397;BME280;1209;48.410;9.054;2022-09-24T10:44:12;95904.72;;;16.20;100.00
2397;BME280;1209;48.410;9.054;2022-09-24T10:52:41;95906.59;;;17.05;100.00
2397;BME280;1209;48.410;9.054;2022-09-24T10:58:01;95899.38;;;16.82;100.00
2397;BME280;1209;48.410;9.054;2022-09-24T11:00:36;95902.94;;;16.87;100.00
2397;BME280;1209;48.410;9.054;2022-09-24T11:05:52;95900.50;;;17.04;100.00
2397;BME280;1209;48.410;9.054;2022-09-24T11:11:09;95910.22;;;16.74;100.00
2397;BME280;1209;48.410;9.054;2022-09-24T11:16:55;95902.59;;;17.14;100.00
2397;BME280;1209;48.410;9.054;2022-09-24T11:19:54;95910.06;;;17.17;100.00
2397;BME280;1209;48.410;9.054;2022-09-24T11:22:34;95913.53;;;16.99;100.00
2397;BME280;1209;48.410;9.054;2022-09-24T11:39:41;95897.53;;;16.82;100.00
2397;BME280;1209;48.410;9.054;2022-09-24T11:42:23;95896.50;;;16.83;100.00
2397;BME280;1209;48.410;9.054;2022-09-24T11:48:03;95896.28;;;16.85;100.00
2397;BME280;1209;48.410;9.054;2022-09-24T11:53:54;95886.13;;;16.70;100.00
2397;BME280;1209;48.410;9.054;2022-09-24T11:56:42;95888.00;;;16.63;100.00
2397;BME280;1209;48.410;9.054;2022-09-24T12:01:55;95881.78;;;16.76;100.00
2397;BME280;1209;48.410;9.054;2022-09-24T12:04:36;95883.69;;;16.87;100.00
2397;BME280;1209;48.410;9.054;2022-09-24T12:07:13;95876.03;;;16.97;100.00
2397;BME280;1209;48.410;9.054;2022-09-24T12:09:51;95879.25;;;16.99;100.00
2397;BME280;1209;48.410;9.054;2022-09-24T12:12:23;95874.53;;;17.01;100.00
2397;BME280;1209;48.410;9.054;2022-09-24T12:15:16;95863.47;;;17.11;100.00
2397;BME280;1209;48.410;9.054;2022-09-24T12:17:48;95868.53;;;17.12;100.00
2397;BME280;1209;48.410;9.054;2022-09-24T12:22:46;95865.13;;;17.23;100.00
2397;BME280;1209;48.410;9.054;2022-09-24T12:25:13;95861.66;;;17.23;100.00
2397;BME280;1209;48.410;9.054;2022-09-24T12:27:38;95851.91;;;17.23;100.00
2397;BME280;1209;48.410;9.054;2022-09-24T12:35:40;95854.91;;;17.39;100.00
2397;BME280;1209;48.410;9.054;2022-09-24T12:38:25;95846.66;;;17.35;100.00
2397;BME280;1209;48.410;9.054;2022-09-24T12:44:10;95846.91;;;17.45;100.00
2397;BME280;1209;48.410;9.054;2022-09-24T12:46:41;95849.84;;;17.67;100.00
2397;BME280;1209;48.410;9.054;2022-09-24T12:49:23;95842.47;;;17.81;100.00
2397;BME280;1209;48.410;9.054;2022-09-24T12:51:55;95853.81;;;17.58;100.00
2397;BME280;1209;48.410;9.054;2022-09-24T12:54:35;95854.63;;;17.05;100.00
2397;BME280;1209;48.410;9.054;2022-09-24T12:57:15;95853.41;;;16.89;100.00
2397;BME280;1209;48.410;9.054;2022-09-24T12:59:54;95859.59;;;16.65;100.00
2397;BME280;1209;48.410;9.054;2022-09-24T13:02:29;95857.75;;;16.47;100.00
2397;BME280;1209;48.410;9.054;2022-09-24T13:07:38;95869.75;;;16.06;100.00
2397;BME280;1209;48.410;9.054;2022-09-24T13:12:42;95859.25;;;15.63;100.00
2397;BME280;1209;48.410;9.054;2022-09-24T13:15:23;95852.53;;;15.67;100.00
2397;BME280;1209;48.410;9.054;2022-09-24T13:20:32;95848.47;;;15.40;100.00
2397;BME280;1209;48.410;9.054;2022-09-24T13:25:40;95854.63;;;15.27;100.00
2397;BME280;1209;48.410;9.054;2022-09-24T13:34:36;95851.69;;;15.10;100.00
2397;BME280;1209;48.410;9.054;2022-09-24T13:37:21;95853.25;;;15.25;100.00
2397;BME280;1209;48.410;9.054;2022-09-24T13:39:54;95854.81;;;15.32;100.00
2397;BME280;1209;48.410;9.054;2022-09-24T13:45:26;95865.59;;;15.49;100.00
2397;BME280;1209;48.410;9.054;2022-09-24T13:47:54;95864.69;;;15.05;100.00
2397;BME280;1209;48.410;9.054;2022-09-24T13:53:00;95849.66;;;15.44;100.00
2397;BME280;1209;48.410;9.054;2022-09-24T13:57:58;95837.38;;;15.56;100.00
2397;BME280;1209;48.410;9.054;2022-09-24T14:00:27;95845.59;;;15.73;100.00
2397;BME280;1209;48.410;9.054;2022-09-24T14:02:57;95844.81;;;15.91;100.00
2397;BME280;1209;48.410;9.054;2022-09-24T14:05:25;95830.34;;;15.50;100.00
2397;BME280;1209;48.410;9.054;2022-09-24T14:07:56;95833.63;;;15.46;100.00
2397;BME280;1209;48.410;9.054;2022-09-24T14:10:23;95833.81;;;15.76;100.00
2397;BME280;1209;48.410;9.054;2022-09-24T14:13:23;95835.81;;;15.98;100.00
2397;BME280;1209;48.410;9.054;2022-09-24T14:15:59;95834.94;;;15.86;100.00
2397;BME280;1209;48.410;9.054;2022-09-24T14:18:31;95840.19;;;16.04;100.00
2397;BME280;1209;48.410;9.054;2022-09-24T14:23:59;95824.25;;;15.99;100.00
2397;BME280;1209;48.410;9.054;2022-09-24T14:26:38;95831.13;;;15.82;100.00
2397;BME280;1209;48.410;9.054;2022-09-24T14:29:15;95824.09;;;15.76;100.00
2397;BME280;1209;48.410;9.054;2022-09-24T14:31:51;95813.19;;;15.72;100.00
2397;BME280;1209;48.410;9.054;2022-09-24T14:34:28;95825.41;;;15.85;100.00
2397;BME280;1209;48.410;9.054;2022-09-24T14:37:04;95820.22;;;15.79;100.00
2397;BME280;1209;48.410;9.054;2022-09-24T14:39:36;95828.78;;;15.92;100.00
2397;BME280;1209;48.410;9.054;2022-09-24T14:42:08;95822.84;;;15.79;100.00
2397;BME280;1209;48.410;9.054;2022-09-24T14:44:37;95829.28;;;15.64;100.00
2397;BME280;1209;48.410;9.054;2022-09-24T14:47:23;95830.13;;;15.58;100.00
2397;BME280;1209;48.410;9.054;2022-09-24T14:49:49;95826.06;;;15.62;100.00
2397;BME280;1209;48.410;9.054;2022-09-24T14:55:16;95816.84;;;15.71;100.00
2397;BME280;1209;48.410;9.054;2022-09-24T14:57:44;95807.84;;;15.54;100.00
2397;BME280;1209;48.410;9.054;2022-09-24T15:02:56;95810.66;;;15.59;100.00
2397;BME280;1209;48.410;9.054;2022-09-24T15:05:24;95803.16;;;15.63;100.00
2397;BME280;1209;48.410;9.054;2022-09-24T15:07:50;95808.25;;;15.58;100.00
2397;BME280;1209;48.410;9.054;2022-09-24T15:10:18;95818.56;;;15.59;100.00
2397;BME280;1209;48.410;9.054;2022-09-24T15:12:46;95812.09;;;15.55;100.00
2397;BME280;1209;48.410;9.054;2022-09-24T15:17:45;95812.44;;;15.40;100.00
2397;BME280;1209;48.410;9.054;2022-09-24T15:20:11;95805.78;;;15.38;100.00
2397;BME280;1209;48.410;9.054;2022-09-24T15:22:37;95808.56;;;15.43;100.00
2397;BME280;1209;48.410;9.054;2022-09-24T15:25:03;95802.78;;;15.34;100.00
2397;BME280;1209;48.410;9.054;2022-09-24T15:27:31;95799.81;;;15.24;100.00
2397;BME280;1209;48.410;9.054;2022-09-24T15:29:59;95794.78;;;15.23;100.00
2397;BME280;1209;48.410;9.054;2022-09-24T15:32:26;95789.47;;;15.29;100.00
2397;BME280;1209;48.410;9.054;2022-09-24T15:34:52;95798.84;;;15.19;100.00
2397;BME280;1209;48.410;9.054;2022-09-24T15:37:20;95801.94;;;15.09;100.00